createdAt,value
2017-06-05T00:00:10.425Z,85.20
2017-06-05T00:02:38.675Z,85.10
2017-06-05T00:05:06.153Z,85.00
2017-06-05T00:07:34.421Z,85.90
2017-06-05T00:10:01.898Z,85.50
2017-06-05T00:12:30.138Z,87.20
2017-06-05T00:14:57.634Z,87.10
2017-06-05T00:17:25.115Z,86.20
2017-06-05T00:19:52.589Z,86.00
2017-06-05T00:22:20.094Z,85.00
2017-06-05T00:24:48.344Z,86.30
2017-06-05T00:27:15.821Z,86.20
2017-06-05T00:29:43.313Z,85.90
2017-06-05T00:32:10.790Z,85.20
2017-06-05T00:34:38.302Z,84.70
2017-06-05T00:37:06.562Z,84.20
2017-06-05T00:39:34.139Z,84.10
2017-06-05T00:42:02.414Z,84.30
2017-06-05T00:44:30.678Z,84.60
2017-06-05T00:46:58.150Z,84.50
2017-06-05T00:49:26.392Z,84.00
2017-06-05T00:51:53.886Z,83.90
2017-06-05T00:54:22.125Z,83.90
2017-06-05T00:56:49.598Z,83.90
2017-06-05T00:59:17.866Z,85.40
2017-06-05T01:01:45.346Z,84.60
2017-06-05T01:04:13.586Z,85.00
2017-06-05T01:06:41.082Z,84.90
2017-06-05T01:09:09.322Z,85.90
2017-06-05T01:11:37.054Z,85.90
2017-06-05T01:14:04.545Z,85.60
2017-06-05T01:16:32.018Z,85.60
2017-06-05T01:19:00.260Z,86.30
2017-06-05T01:21:27.750Z,85.90
2017-06-05T01:23:55.998Z,85.70
2017-06-05T01:26:23.474Z,85.50
2017-06-05T01:28:50.974Z,85.80
2017-06-05T01:31:18.461Z,86.40
2017-06-05T01:33:45.937Z,86.70
2017-06-05T01:36:13.433Z,86.80
2017-06-05T01:38:40.910Z,87.10
2017-06-05T01:41:08.381Z,86.20
2017-06-05T01:43:35.873Z,86.20
2017-06-05T01:46:03.353Z,86.10
2017-06-05T01:48:31.598Z,85.90
2017-06-05T01:50:59.090Z,85.80
2017-06-05T01:53:27.330Z,85.90
2017-06-05T01:55:54.802Z,85.80
2017-06-05T01:58:22.294Z,86.90
2017-06-05T02:00:49.774Z,86.80
2017-06-05T02:03:17.254Z,86.60
2017-06-05T02:05:44.753Z,86.40
2017-06-05T02:08:12.996Z,85.70
2017-06-05T02:10:40.477Z,85.70
2017-06-05T02:13:08.742Z,88.00
2017-06-05T02:15:37.276Z,87.20
2017-06-05T02:18:04.758Z,87.10
2017-06-05T02:20:32.253Z,86.40
2017-06-05T02:23:00.493Z,86.00
2017-06-05T02:25:27.973Z,85.90
2017-06-05T02:27:56.254Z,86.40
2017-06-05T02:30:24.498Z,85.50
2017-06-05T02:32:51.974Z,85.30
2017-06-05T02:35:19.469Z,84.70
2017-06-05T02:37:46.950Z,84.40
2017-06-05T02:40:14.425Z,85.20
2017-06-05T02:42:41.947Z,85.80
2017-06-05T02:45:09.426Z,86.60
2017-06-05T02:47:36.902Z,87.00
2017-06-05T02:50:04.395Z,86.70
2017-06-05T02:52:32.642Z,85.80
2017-06-05T02:55:00.114Z,85.80
2017-06-05T02:57:28.390Z,85.40
2017-06-05T02:59:56.633Z,84.90
2017-06-05T03:02:24.107Z,85.40
2017-06-05T03:04:51.601Z,85.70
2017-06-05T03:07:19.074Z,86.20
2017-06-05T03:09:46.553Z,86.30
2017-06-05T03:12:14.109Z,86.10
2017-06-05T03:14:41.587Z,86.20
2017-06-05T03:17:09.061Z,86.40
2017-06-05T03:19:36.557Z,86.70
2017-06-05T03:22:04.038Z,86.50
2017-06-05T03:24:31.513Z,86.50
2017-06-05T03:26:59.352Z,87.10
2017-06-05T03:29:26.834Z,87.10
2017-06-05T03:31:54.307Z,86.60
2017-06-05T03:34:21.809Z,86.90
2017-06-05T03:36:49.290Z,86.80
2017-06-05T03:39:17.041Z,86.60
2017-06-05T03:41:44.534Z,86.50
2017-06-05T03:44:12.010Z,86.00
2017-06-05T03:46:40.258Z,86.10
2017-06-05T03:49:07.994Z,86.10
2017-06-05T03:51:35.466Z,85.50
2017-06-05T03:54:02.942Z,85.40
2017-06-05T03:56:30.832Z,85.80
2017-06-05T03:58:59.074Z,86.10
2017-06-05T04:01:26.545Z,86.10
2017-06-05T04:03:54.270Z,85.30
2017-06-05T04:06:21.750Z,84.60
2017-06-05T04:08:49.224Z,84.60
2017-06-05T04:11:16.714Z,84.50
2017-06-05T04:13:44.254Z,84.50
2017-06-05T04:16:12.498Z,85.20
2017-06-05T04:18:39.994Z,85.20
2017-06-05T04:21:08.238Z,84.30
2017-06-05T04:23:35.717Z,84.30
2017-06-05T04:26:04.002Z,84.40
2017-06-05T04:28:32.249Z,84.50
2017-06-05T04:30:59.725Z,84.50
2017-06-05T04:33:27.994Z,83.80
2017-06-05T04:35:55.815Z,83.80
2017-06-05T04:38:23.291Z,83.50
2017-06-05T04:40:50.788Z,83.10
2017-06-05T04:43:19.310Z,83.10
2017-06-05T04:45:46.782Z,83.10
2017-06-05T04:48:14.285Z,83.10
2017-06-05T04:50:42.526Z,82.40
2017-06-05T04:53:09.999Z,82.30
2017-06-05T04:55:37.878Z,81.40
2017-06-05T04:58:06.124Z,80.60
2017-06-05T05:00:33.598Z,80.50
2017-06-05T05:03:01.098Z,80.10
2017-06-05T05:05:28.570Z,80.90
2017-06-05T05:07:56.049Z,81.90
2017-06-05T05:10:23.542Z,81.70
2017-06-05T05:12:51.782Z,81.50
2017-06-05T05:15:19.255Z,81.40
2017-06-05T05:17:46.746Z,80.50
2017-06-05T05:20:14.218Z,80.30
2017-06-05T05:22:41.694Z,80.50
2017-06-05T05:25:09.857Z,81.30
2017-06-05T05:27:37.333Z,81.00
2017-06-05T05:30:04.811Z,81.50
2017-06-05T05:32:32.390Z,82.40
2017-06-05T05:35:00.632Z,82.30
2017-06-05T05:37:28.370Z,82.30
2017-06-05T05:39:55.886Z,81.50
2017-06-05T05:42:24.134Z,80.50
2017-06-05T05:44:51.865Z,80.40
2017-06-05T05:47:19.375Z,80.00
2017-06-05T05:49:47.617Z,80.10
2017-06-05T05:52:15.090Z,79.50
2017-06-05T05:54:42.582Z,79.60
2017-06-05T05:57:10.819Z,79.50
2017-06-05T05:59:38.289Z,79.50
2017-06-05T06:02:05.785Z,78.40
2017-06-05T06:04:33.261Z,78.40
2017-06-05T06:07:00.734Z,78.20
2017-06-05T06:09:28.233Z,76.90
2017-06-05T06:11:56.469Z,77.00
2017-06-05T06:14:23.947Z,77.00
2017-06-05T06:16:51.446Z,77.20
2017-06-05T06:19:18.922Z,77.80
2017-06-05T06:21:46.398Z,76.20
2017-06-05T06:24:13.893Z,76.40
2017-06-05T06:26:42.139Z,76.60
2017-06-05T06:29:09.618Z,76.50
2017-06-05T06:31:37.878Z,73.70
2017-06-05T06:34:05.350Z,73.60
2017-06-05T06:36:33.589Z,75.10
2017-06-05T06:39:01.082Z,75.00
2017-06-05T06:41:29.322Z,72.80
2017-06-05T06:43:56.794Z,73.10
2017-06-05T06:46:24.292Z,74.50
2017-06-05T06:48:51.769Z,75.80
2017-06-05T06:51:19.239Z,75.20
2017-06-05T06:53:46.735Z,76.40
2017-06-05T06:56:14.299Z,76.00
2017-06-05T06:58:42.834Z,76.20
2017-06-05T07:01:10.338Z,75.40
2017-06-05T07:03:37.931Z,75.20
2017-06-05T07:06:05.448Z,74.10
2017-06-05T07:08:32.992Z,74.30
2017-06-05T07:11:00.471Z,71.40
2017-06-05T07:13:27.951Z,71.60
2017-06-05T07:15:55.602Z,73.00
2017-06-05T07:18:23.845Z,74.60
2017-06-05T07:20:51.325Z,74.60
2017-06-05T07:23:19.590Z,73.90
2017-06-05T07:25:47.076Z,74.40
2017-06-05T07:28:15.314Z,73.80
2017-06-05T07:30:42.811Z,73.80
2017-06-05T07:33:10.292Z,73.20
2017-06-05T07:35:37.773Z,72.60
2017-06-05T07:38:05.274Z,73.20
2017-06-05T07:40:33.510Z,72.10
2017-06-05T07:43:00.982Z,71.90
2017-06-05T07:45:28.482Z,72.20
2017-06-05T07:47:55.962Z,72.20
2017-06-05T07:50:23.438Z,71.70
2017-06-05T07:52:50.930Z,71.70
2017-06-05T07:55:19.170Z,68.80
2017-06-05T07:57:46.646Z,68.70
2017-06-05T08:00:14.148Z,68.70
2017-06-05T08:02:41.629Z,66.90
2017-06-05T08:05:09.110Z,68.10
2017-06-05T08:07:36.607Z,70.10
2017-06-05T08:10:04.088Z,68.90
2017-06-05T08:12:31.565Z,70.40
2017-06-05T08:14:59.064Z,70.60
2017-06-05T08:17:27.309Z,70.30
2017-06-05T08:19:54.798Z,70.30
2017-06-05T08:22:23.068Z,72.00
2017-06-05T08:24:51.349Z,71.30
2017-06-05T08:27:19.600Z,71.10
2017-06-05T08:29:47.889Z,70.80
2017-06-05T08:32:15.369Z,70.80
2017-06-05T08:34:42.853Z,71.10
2017-06-05T08:37:10.353Z,72.10
2017-06-05T08:39:37.825Z,71.50
2017-06-05T08:42:06.070Z,71.30
2017-06-05T08:44:33.565Z,71.40
2017-06-05T08:47:01.062Z,70.80
2017-06-05T08:49:28.546Z,70.90
2017-06-05T08:51:56.045Z,71.60
2017-06-05T08:54:24.557Z,71.50
2017-06-05T08:56:52.042Z,71.40
2017-06-05T08:59:19.542Z,71.70
2017-06-05T09:01:47.022Z,72.10
2017-06-05T09:04:14.504Z,72.50
2017-06-05T09:06:42.025Z,71.90
2017-06-05T09:09:09.506Z,73.10
2017-06-05T09:11:37.135Z,71.90
2017-06-05T09:14:04.662Z,73.30
2017-06-05T09:16:32.240Z,72.50
2017-06-05T09:19:01.350Z,72.20
2017-06-05T09:21:28.850Z,72.20
2017-06-05T09:24:02.386Z,73.00
2017-06-05T09:26:30.650Z,70.40
2017-06-05T09:28:58.128Z,69.60
2017-06-05T09:31:26.381Z,69.20
2017-06-05T09:33:53.881Z,69.10
2017-06-05T09:36:21.357Z,68.80
2017-06-05T09:38:48.838Z,70.30
2017-06-05T09:41:16.337Z,68.70
2017-06-05T09:43:43.818Z,69.30
2017-06-05T09:46:11.297Z,69.80
2017-06-05T09:48:38.806Z,69.70
2017-06-05T09:51:07.054Z,70.70
2017-06-05T09:53:34.541Z,70.70
2017-06-05T09:56:02.046Z,68.80
2017-06-05T09:58:29.526Z,70.30
2017-06-05T10:00:57.009Z,70.50
2017-06-05T10:03:24.518Z,70.30
2017-06-05T10:05:52.002Z,69.50
2017-06-05T10:08:19.490Z,70.00
2017-06-05T10:10:46.998Z,69.10
2017-06-05T10:13:14.478Z,69.80
2017-06-05T10:15:41.989Z,69.20
2017-06-05T10:18:09.489Z,71.00
2017-06-05T10:20:36.974Z,71.10
2017-06-05T10:23:04.525Z,71.40
2017-06-05T10:25:32.790Z,72.80
2017-06-05T10:28:00.269Z,72.80
2017-06-05T10:30:27.803Z,72.70
2017-06-05T10:32:55.333Z,73.60
2017-06-05T10:35:22.814Z,74.70
2017-06-05T10:37:50.298Z,75.80
2017-06-05T10:40:18.583Z,75.70
2017-06-05T10:42:46.078Z,76.20
2017-06-05T10:45:13.557Z,76.90
2017-06-05T10:47:41.405Z,75.50
2017-06-05T10:50:08.901Z,75.80
2017-06-05T10:52:37.149Z,74.50
2017-06-05T10:55:04.729Z,74.50
2017-06-05T10:57:32.252Z,74.40
2017-06-05T10:59:59.729Z,73.70
2017-06-05T11:02:27.230Z,74.70
2017-06-05T11:04:54.709Z,73.50
2017-06-05T11:07:22.189Z,70.40
2017-06-05T11:09:49.705Z,73.20
2017-06-05T11:12:17.234Z,74.00
2017-06-05T11:14:45.510Z,71.20
2017-06-05T11:17:13.812Z,68.50
2017-06-05T11:19:41.304Z,68.40
2017-06-05T11:22:08.806Z,69.70
2017-06-05T11:24:37.073Z,67.80
2017-06-05T11:27:05.318Z,68.20
2017-06-05T11:29:32.813Z,68.20
2017-06-05T11:32:01.129Z,69.10
2017-06-05T11:34:28.658Z,69.10
2017-06-05T11:36:56.209Z,69.00
2017-06-05T11:39:23.746Z,71.20
2017-06-05T11:41:51.281Z,70.20
2017-06-05T11:44:18.801Z,69.80
2017-06-05T11:46:46.339Z,69.70
2017-06-05T11:49:14.585Z,70.80
2017-06-05T11:51:42.419Z,70.70
2017-06-05T11:54:09.962Z,69.80
2017-06-05T11:56:37.446Z,71.00
2017-06-05T11:59:04.963Z,70.60
2017-06-05T12:01:32.513Z,69.80
2017-06-05T12:04:00.797Z,65.00
2017-06-05T12:06:29.045Z,64.20
2017-06-05T12:08:56.604Z,64.20
2017-06-05T12:11:24.096Z,62.90
2017-06-05T12:13:51.573Z,63.00
2017-06-05T12:16:19.082Z,65.70
2017-06-05T12:18:46.561Z,64.60
2017-06-05T12:21:14.077Z,61.30
2017-06-05T12:23:41.678Z,65.90
2017-06-05T12:26:09.986Z,58.60
2017-06-05T12:28:37.488Z,58.50
2017-06-05T12:31:05.029Z,58.70
2017-06-05T12:33:32.514Z,58.70
2017-06-05T12:36:00.763Z,59.10
2017-06-05T12:38:28.287Z,59.10
2017-06-05T12:40:55.789Z,60.10
2017-06-05T12:43:23.269Z,61.10
2017-06-05T12:45:51.534Z,61.50
2017-06-05T12:48:19.785Z,61.90
2017-06-05T12:50:47.265Z,61.90
2017-06-05T12:53:14.762Z,60.70
2017-06-05T12:55:42.237Z,58.70
2017-06-05T12:58:09.710Z,59.00
2017-06-05T13:00:37.202Z,57.60
2017-06-05T13:03:05.446Z,59.10
2017-06-05T13:05:32.918Z,59.10
2017-06-05T13:08:00.417Z,57.50
2017-06-05T13:10:27.898Z,56.60
2017-06-05T13:12:55.654Z,55.10
2017-06-05T13:15:23.147Z,57.30
2017-06-05T13:17:50.625Z,59.10
2017-06-05T13:20:18.869Z,60.00
2017-06-05T13:22:46.394Z,60.00
2017-06-05T13:25:13.895Z,59.00
2017-06-05T13:27:42.526Z,61.30
2017-06-05T13:30:10.025Z,62.00
2017-06-05T13:32:37.890Z,62.40
2017-06-05T13:35:05.498Z,62.20
2017-06-05T13:37:32.993Z,61.10
2017-06-05T13:40:00.817Z,62.00
2017-06-05T13:42:29.570Z,63.80
2017-06-05T13:44:57.069Z,63.80
2017-06-05T13:47:24.550Z,64.00
2017-06-05T13:49:52.025Z,64.10
2017-06-05T13:52:19.525Z,61.30
2017-06-05T13:54:47.802Z,60.20
2017-06-05T13:57:16.053Z,61.30
2017-06-05T13:59:43.554Z,61.20
2017-06-05T14:02:11.037Z,61.50
2017-06-05T14:04:38.518Z,62.60
2017-06-05T14:07:06.021Z,61.30
2017-06-05T14:09:33.502Z,62.70
2017-06-05T14:12:00.990Z,58.20
2017-06-05T14:14:28.489Z,57.90
2017-06-05T14:16:56.733Z,61.90
2017-06-05T14:19:24.215Z,61.90
2017-06-05T14:21:52.823Z,62.90
2017-06-05T14:24:20.310Z,62.90
2017-06-05T14:26:47.789Z,62.80
2017-06-05T14:29:15.372Z,63.10
2017-06-05T14:31:43.618Z,63.20
2017-06-05T14:34:11.097Z,63.20
2017-06-05T14:36:39.361Z,62.90
2017-06-05T14:39:06.841Z,62.80
2017-06-05T14:41:35.360Z,58.80
2017-06-05T14:44:02.857Z,58.80
2017-06-05T14:46:30.329Z,57.90
2017-06-05T14:48:58.573Z,60.20
2017-06-05T14:51:26.466Z,60.10
2017-06-05T14:53:54.709Z,57.40
2017-06-05T14:56:22.187Z,57.30
2017-06-05T14:58:49.686Z,59.40
2017-06-05T15:01:17.162Z,59.40
2017-06-05T15:03:44.631Z,60.80
2017-06-05T15:06:12.134Z,59.80
2017-06-05T15:08:40.392Z,61.50
2017-06-05T15:11:07.874Z,61.40
2017-06-05T15:13:36.138Z,59.50
2017-06-05T15:16:04.385Z,58.70
2017-06-05T15:18:31.870Z,58.50
2017-06-05T15:21:00.146Z,60.50
2017-06-05T15:23:28.394Z,59.80
2017-06-05T15:25:55.874Z,59.80
2017-06-05T15:28:24.133Z,60.30
2017-06-05T15:30:51.605Z,60.30
2017-06-05T15:33:19.849Z,59.70
2017-06-05T15:35:47.350Z,59.10
2017-06-05T15:38:15.590Z,59.60
2017-06-05T15:40:43.069Z,59.60
2017-06-05T15:43:11.326Z,60.10
2017-06-05T15:45:38.808Z,59.50
2017-06-05T15:48:07.054Z,57.50
2017-06-05T15:50:34.549Z,57.50
2017-06-05T15:53:02.789Z,57.40
2017-06-05T15:55:30.270Z,57.30
2017-06-05T15:57:58.542Z,56.40
2017-06-05T16:00:26.793Z,58.70
2017-06-05T16:02:54.274Z,58.50
2017-06-05T16:05:22.547Z,59.40
2017-06-05T16:07:50.798Z,57.80
2017-06-05T16:10:18.290Z,57.70
2017-06-05T16:12:46.553Z,58.10
2017-06-05T16:15:14.025Z,58.10
2017-06-05T16:17:42.265Z,60.70
2017-06-05T16:20:09.762Z,60.70
2017-06-05T16:22:38.222Z,60.50
2017-06-05T16:25:05.693Z,60.50
2017-06-05T16:27:33.951Z,59.70
2017-06-05T16:30:01.428Z,59.70
2017-06-05T16:32:29.670Z,59.20
2017-06-05T16:34:57.169Z,59.10
2017-06-05T16:37:24.709Z,60.20
2017-06-05T16:39:52.945Z,60.80
2017-06-05T16:42:20.653Z,60.80
2017-06-05T16:44:48.897Z,61.20
2017-06-05T16:47:16.374Z,61.20
2017-06-05T16:49:43.869Z,60.90
2017-06-05T16:52:11.342Z,60.90
2017-06-05T16:54:38.824Z,61.60
2017-06-05T16:57:06.320Z,60.90
2017-06-05T16:59:34.557Z,60.90
2017-06-05T17:02:02.030Z,60.90
2017-06-05T17:04:29.529Z,60.50
2017-06-05T17:06:57.002Z,62.30
2017-06-05T17:09:24.477Z,63.10
2017-06-05T17:11:51.973Z,63.60
2017-06-05T17:14:20.737Z,63.80
2017-06-05T17:16:48.286Z,63.70
2017-06-05T17:19:16.025Z,64.10
2017-06-05T17:21:44.400Z,64.30
2017-06-05T17:24:11.954Z,63.10
2017-06-05T17:26:40.347Z,65.10
2017-06-05T17:29:08.830Z,66.10
2017-06-05T17:31:36.684Z,65.90
2017-06-05T17:34:04.198Z,67.20
2017-06-05T17:36:32.446Z,66.20
2017-06-05T17:38:59.918Z,66.60
2017-06-05T17:41:27.466Z,66.90
2017-06-05T17:43:54.935Z,65.70
2017-06-05T17:46:23.203Z,65.20
2017-06-05T17:48:51.496Z,65.90
2017-06-05T17:51:19.746Z,66.60
2017-06-05T17:53:51.625Z,66.60
2017-06-05T17:56:20.768Z,64.50
2017-06-05T17:58:50.002Z,63.20
2017-06-05T18:01:17.490Z,64.00
2017-06-05T18:03:45.739Z,67.30
2017-06-05T18:06:13.234Z,67.20
2017-06-05T18:08:40.793Z,68.20
2017-06-05T18:11:08.285Z,69.10
2017-06-05T18:13:35.805Z,69.40
2017-06-05T18:16:04.049Z,71.00
2017-06-05T18:18:31.526Z,70.90
2017-06-05T18:20:59.791Z,72.80
2017-06-05T18:23:27.270Z,72.70
2017-06-05T18:25:54.926Z,73.40
2017-06-05T18:28:23.201Z,73.80
2017-06-05T18:30:51.446Z,73.90
2017-06-05T18:33:18.941Z,73.80
2017-06-05T18:35:46.442Z,74.30
2017-06-05T18:38:13.926Z,74.90
2017-06-05T18:40:41.410Z,74.90
2017-06-05T18:43:09.702Z,75.20
2017-06-05T18:45:37.182Z,75.20
2017-06-05T18:48:04.663Z,75.60
2017-06-05T18:50:32.162Z,75.50
2017-06-05T18:52:59.682Z,75.50
2017-06-05T18:55:27.206Z,75.50
2017-06-05T18:57:54.757Z,75.60
2017-06-05T19:00:22.255Z,76.20
2017-06-05T19:02:49.738Z,76.10
2017-06-05T19:05:18.053Z,76.60
2017-06-05T19:07:45.533Z,76.60
2017-06-05T19:10:13.022Z,76.70
2017-06-05T19:12:41.290Z,77.50
2017-06-05T19:15:08.774Z,77.50
2017-06-05T19:17:36.290Z,77.90
2017-06-05T19:20:03.831Z,77.80
2017-06-05T19:22:31.321Z,77.90
2017-06-05T19:24:58.806Z,78.00
2017-06-05T19:27:26.309Z,78.00
2017-06-05T19:29:53.826Z,78.30
2017-06-05T19:32:21.347Z,78.60
2017-06-05T19:34:48.859Z,78.90
2017-06-05T19:37:16.337Z,78.80
2017-06-05T19:39:43.817Z,78.70
2017-06-05T19:42:11.322Z,78.70
2017-06-05T19:44:38.805Z,79.00
2017-06-05T19:47:06.291Z,79.30
2017-06-05T19:49:33.794Z,79.30
2017-06-05T19:52:01.278Z,79.50
2017-06-05T19:54:28.758Z,80.50
2017-06-05T19:56:56.258Z,80.60
2017-06-05T19:59:23.738Z,81.10
2017-06-05T20:01:51.217Z,81.40
2017-06-05T20:04:18.718Z,81.60
2017-06-05T20:06:46.968Z,81.80
2017-06-05T20:09:14.453Z,81.80
2017-06-05T20:11:42.729Z,81.90
2017-06-05T20:14:11.249Z,81.80
2017-06-05T20:16:38.735Z,81.70
2017-06-05T20:19:06.238Z,81.80
2017-06-05T20:21:33.885Z,82.30
2017-06-05T20:24:02.133Z,82.90
2017-06-05T20:26:29.730Z,82.80
2017-06-05T20:28:57.210Z,82.90
2017-06-05T20:31:24.730Z,83.00
2017-06-05T20:33:53.354Z,83.10
2017-06-05T20:36:20.839Z,83.10
2017-06-05T20:38:48.322Z,82.90
2017-06-05T20:41:16.594Z,82.80
2017-06-05T20:43:44.845Z,82.60
2017-06-05T20:46:12.325Z,82.60
2017-06-05T20:48:40.963Z,82.10
2017-06-05T20:51:08.446Z,82.40
2017-06-05T20:53:36.026Z,82.40
2017-06-05T20:56:04.294Z,82.50
2017-06-05T20:58:31.795Z,82.50
2017-06-05T21:00:59.277Z,82.50
2017-06-05T21:03:26.777Z,82.30
2017-06-05T21:05:55.026Z,82.60
2017-06-05T21:08:22.505Z,82.40
2017-06-05T21:10:50.773Z,82.90
2017-06-05T21:13:18.254Z,82.40
2017-06-05T21:15:46.769Z,83.00
2017-06-05T21:18:14.271Z,82.90
2017-06-05T21:20:41.750Z,83.10
2017-06-05T21:23:10.265Z,83.10
2017-06-05T21:25:37.770Z,83.10
2017-06-05T21:28:05.486Z,82.50
2017-06-05T21:30:32.970Z,82.10
2017-06-05T21:33:00.469Z,83.00
2017-06-05T21:35:28.714Z,84.40
2017-06-05T21:37:56.193Z,84.30
2017-06-05T21:40:24.465Z,84.40
2017-06-05T21:42:51.966Z,84.40
2017-06-05T21:45:19.453Z,84.90
2017-06-05T21:47:46.953Z,85.00
2017-06-05T21:50:14.437Z,84.50
2017-06-05T21:52:41.921Z,84.70
2017-06-05T21:55:09.422Z,84.70
2017-06-05T21:57:36.902Z,84.80
2017-06-05T22:00:04.387Z,84.90
2017-06-05T22:02:31.894Z,84.80
2017-06-05T22:04:59.373Z,85.20
2017-06-05T22:07:26.855Z,85.20
2017-06-05T22:09:54.359Z,85.20
2017-06-05T22:12:22.610Z,85.60
2017-06-05T22:14:50.093Z,85.50
2017-06-05T22:17:18.362Z,85.30
2017-06-05T22:19:46.609Z,85.50
2017-06-05T22:22:14.094Z,85.50
2017-06-05T22:24:42.362Z,85.40
2017-06-05T22:27:10.609Z,85.70
2017-06-05T22:29:38.350Z,85.70
2017-06-05T22:32:05.849Z,86.20
2017-06-05T22:34:33.329Z,86.60
2017-06-05T22:37:01.574Z,85.40
2017-06-05T22:39:29.076Z,85.40
2017-06-05T22:41:56.554Z,85.50
2017-06-05T22:44:24.037Z,85.50
2017-06-05T22:46:51.538Z,85.60
2017-06-05T22:49:19.021Z,85.70
2017-06-05T22:51:46.504Z,85.90
2017-06-05T22:54:14.005Z,86.20
2017-06-05T22:56:42.250Z,86.10
2017-06-05T22:59:09.834Z,86.00
2017-06-05T23:01:38.101Z,88.00
2017-06-05T23:04:06.341Z,88.80
2017-06-05T23:06:33.822Z,88.20
2017-06-05T23:09:01.321Z,87.40
2017-06-05T23:11:28.802Z,85.40
2017-06-05T23:13:56.281Z,86.50
2017-06-05T23:16:23.784Z,86.20
2017-06-05T23:18:51.267Z,86.60
2017-06-05T23:21:18.745Z,87.20
2017-06-05T23:23:46.246Z,87.40
2017-06-05T23:26:14.519Z,87.10
2017-06-05T23:28:42.753Z,87.60
2017-06-05T23:31:10.257Z,87.60
2017-06-05T23:34:07.328Z,87.20
2017-06-05T23:36:34.830Z,87.30
2017-06-05T23:39:02.310Z,87.30
2017-06-05T23:41:30.553Z,87.40
2017-06-05T23:43:58.054Z,87.20
2017-06-05T23:46:26.298Z,87.40
2017-06-05T23:48:53.774Z,87.40
2017-06-05T23:51:22.042Z,87.50
2017-06-05T23:53:49.526Z,87.50
2017-06-05T23:56:17.069Z,87.80
2017-06-05T23:58:45.337Z,88.60
